Time;durP1;ratioP1;P1;durP2;ratioP2;P2;SDS_P1;SDS_P2;PMS_P1;PMS_P2;Temp;Humidity;BMP_temperature;BMP_pressure;BME280_temperature;BME280_humidity;BME280_pressure;Samples;Min_cycle;Max_cycle;Signal;HPM_P1;HPM_P2
2023/10/04 00:00:21;;;;;;;2.20;1.50;;;24.40;79.60;;;;;;4955326;29;20501;-88
2023/10/04 00:02:51;;;;;;;1.73;1.47;;;24.40;79.60;;;;;;4955166;29;20448;-88
2023/10/04 00:05:21;;;;;;;1.73;1.63;;;24.40;79.40;;;;;;4955192;29;20458;-87
2023/10/04 00:07:49;;;;;;;1.60;1.50;;;24.50;79.70;;;;;;4955272;28;20542;-87
2023/10/04 00:10:17;;;;;;;1.50;1.20;;;24.40;79.60;;;;;;4955137;29;20468;-87
2023/10/04 00:12:45;;;;;;;2.03;1.27;;;24.40;79.60;;;;;;4954896;28;20480;-87
2023/10/04 00:15:13;;;;;;;1.43;1.03;;;24.40;79.50;;;;;;4955101;29;20445;-87
2023/10/04 00:17:41;;;;;;;1.83;1.40;;;24.40;79.60;;;;;;4955027;29;20447;-87
2023/10/04 00:20:10;;;;;;;1.70;1.47;;;24.40;79.60;;;;;;4955159;28;20442;-88
2023/10/04 00:22:40;;;;;;;1.87;1.53;;;24.40;79.60;;;;;;4954983;29;20458;-87
2023/10/04 00:25:11;;;;;;;1.83;1.30;;;24.40;79.60;;;;;;4954925;29;20528;-87
2023/10/04 00:27:40;;;;;;;1.50;1.40;;;24.40;79.60;;;;;;4955009;29;20452;-87
2023/10/04 00:30:11;;;;;;;2.10;1.43;;;24.40;79.50;;;;;;4955000;28;20449;-87
2023/10/04 00:32:37;;;;;;;1.97;1.40;;;24.40;79.50;;;;;;4954970;29;20456;-87
2023/10/04 00:35:07;;;;;;;1.40;1.30;;;24.40;79.40;;;;;;4954961;29;20467;-87
2023/10/04 00:37:34;;;;;;;2.43;1.37;;;24.40;79.30;;;;;;4954854;29;20866;-87
2023/10/04 00:40:09;;;;;;;1.40;1.23;;;24.40;79.50;;;;;;4954847;29;20829;-86
2023/10/04 00:42:36;;;;;;;1.10;1.00;;;24.50;79.60;;;;;;4955731;28;20797;-87
2023/10/04 00:45:04;;;;;;;1.57;1.10;;;24.40;79.50;;;;;;4958668;29;20512;-87
2023/10/04 00:47:32;;;;;;;1.70;1.20;;;24.40;79.50;;;;;;4958796;29;20449;-87
2023/10/04 00:50:01;;;;;;;1.47;1.30;;;24.40;79.40;;;;;;4958699;29;20454;-88
2023/10/04 00:52:28;;;;;;;1.30;1.20;;;24.40;79.40;;;;;;4958605;28;20442;-87
2023/10/04 00:54:55;;;;;;;1.60;1.40;;;24.40;79.40;;;;;;4958558;29;20446;-87
2023/10/04 00:57:23;;;;;;;1.60;1.23;;;24.40;79.40;;;;;;4958349;29;20468;-87
2023/10/04 00:59:50;;;;;;;1.50;1.23;;;24.40;79.40;;;;;;4958558;29;20445;-87
2023/10/04 01:02:17;;;;;;;1.30;1.10;;;24.40;79.40;;;;;;4958481;29;20444;-87
2023/10/04 01:04:46;;;;;;;2.13;1.93;;;24.40;79.40;;;;;;4958194;29;20489;-87
2023/10/04 01:07:16;;;;;;;1.53;1.33;;;24.40;79.50;;;;;;4958336;29;20537;-86
2023/10/04 01:09:43;;;;;;;1.67;1.50;;;24.40;79.40;;;;;;4958106;29;22142;-87
2023/10/04 01:12:10;;;;;;;1.50;1.30;;;24.40;79.40;;;;;;4958041;29;20889;-88
2023/10/04 01:14:38;;;;;;;2.80;1.20;;;24.30;79.10;;;;;;4958269;29;20445;-87
2023/10/04 01:17:12;;;;;;;2.50;1.30;;;24.30;79.30;;;;;;4958095;29;20449;-87
2023/10/04 01:19:40;;;;;;;1.40;1.30;;;24.30;79.30;;;;;;4958132;29;21032;-87
2023/10/04 01:22:09;;;;;;;1.37;1.20;;;24.30;79.10;;;;;;4957914;29;20456;-87
2023/10/04 01:24:41;;;;;;;1.40;1.30;;;24.30;79.30;;;;;;4958036;29;20535;-87
2023/10/04 01:27:08;;;;;;;1.73;1.30;;;24.40;79.40;;;;;;4958051;29;20508;-87
2023/10/04 01:29:38;;;;;;;1.80;1.40;;;24.30;79.20;;;;;;4957982;29;20445;-87
2023/10/04 01:32:05;;;;;;;1.97;1.30;;;24.40;79.40;;;;;;4957908;28;20442;-88
2023/10/04 01:34:32;;;;;;;1.20;1.10;;;24.30;79.20;;;;;;4957982;28;20862;-87
2023/10/04 01:36:59;;;;;;;2.70;1.20;;;24.30;79.20;;;;;;4957767;29;20516;-87
2023/10/04 01:39:30;;;;;;;1.80;1.43;;;24.40;79.30;;;;;;4957638;29;20557;-88
2023/10/04 01:41:57;;;;;;;2.80;1.70;;;24.30;79.30;;;;;;4957828;29;20532;-88
2023/10/04 01:44:24;;;;;;;1.37;1.20;;;24.30;79.20;;;;;;4957652;29;20907;-88
2023/10/04 01:46:51;;;;;;;1.40;1.13;;;24.30;79.20;;;;;;4957727;29;20458;-87
2023/10/04 01:49:18;;;;;;;2.17;1.20;;;24.30;79.20;;;;;;4957690;29;20446;-87
2023/10/04 01:51:45;;;;;;;1.73;1.63;;;24.30;79.10;;;;;;4957377;29;20445;-87
2023/10/04 01:54:12;;;;;;;1.70;1.30;;;24.30;79.10;;;;;;4956752;28;20464;-86
2023/10/04 01:56:41;;;;;;;1.97;1.30;;;24.30;79.10;;;;;;4957443;28;20933;-86
2023/10/04 01:59:08;;;;;;;1.80;1.20;;;24.30;79.10;;;;;;4957490;28;20501;-86
2023/10/04 02:01:34;;;;;;;2.40;1.63;;;24.30;79.20;;;;;;4957444;29;20456;-86
2023/10/04 02:04:04;;;;;;;1.47;1.37;;;24.30;79.00;;;;;;4957293;29;21002;-86
2023/10/04 02:06:31;;;;;;;1.90;1.50;;;24.30;79.10;;;;;;4957288;29;20446;-87
2023/10/04 02:09:00;;;;;;;2.93;1.23;;;24.30;79.10;;;;;;4957231;29;20980;-87
2023/10/04 02:11:26;;;;;;;1.50;1.27;;;24.30;79.10;;;;;;4957085;29;20817;-86
2023/10/04 02:13:55;;;;;;;1.27;1.03;;;24.30;79.10;;;;;;4956859;28;20473;-86
2023/10/04 02:16:22;;;;;;;2.40;1.17;;;24.30;79.10;;;;;;4957155;29;20444;-86
2023/10/04 02:18:52;;;;;;;1.57;1.20;;;24.20;78.90;;;;;;4957128;29;20449;-86
2023/10/04 02:21:19;;;;;;;1.83;1.27;;;24.30;79.20;;;;;;4957026;29;20453;-87
2023/10/04 02:23:46;;;;;;;1.33;1.17;;;24.30;78.90;;;;;;4956879;29;20472;-86
2023/10/04 02:26:13;;;;;;;1.37;1.13;;;24.30;79.10;;;;;;4956916;29;20937;-86
2023/10/04 02:28:40;;;;;;;1.50;1.40;;;24.30;79.10;;;;;;4956947;29;20446;-87
2023/10/04 02:31:08;;;;;;;1.27;1.17;;;24.20;79.00;;;;;;4956834;29;20845;-85
2023/10/04 02:33:38;;;;;;;2.33;1.17;;;24.30;79.00;;;;;;4956720;29;20446;-86
2023/10/04 02:36:06;;;;;;;2.07;1.30;;;24.30;79.10;;;;;;4956829;29;20943;-87
2023/10/04 02:38:34;;;;;;;1.37;1.13;;;24.20;79.00;;;;;;4956920;28;20508;-88
2023/10/04 02:41:01;;;;;;;2.37;1.43;;;24.30;79.00;;;;;;4956603;28;20822;-85
2023/10/04 02:43:28;;;;;;;1.40;1.20;;;24.20;79.00;;;;;;4956650;29;20528;-87
2023/10/04 02:45:57;;;;;;;1.77;1.67;;;24.20;79.00;;;;;;4956500;29;20916;-87
2023/10/04 02:48:25;;;;;;;1.53;1.23;;;24.20;79.00;;;;;;4956467;29;20441;-87
2023/10/04 02:50:52;;;;;;;1.63;1.40;;;24.30;79.00;;;;;;4956512;29;20437;-87
2023/10/04 02:53:20;;;;;;;2.13;1.63;;;24.20;78.90;;;;;;4956604;29;20533;-87
2023/10/04 02:55:47;;;;;;;1.77;1.30;;;24.30;79.10;;;;;;4956333;29;20441;-87
2023/10/04 02:58:16;;;;;;;1.90;1.50;;;24.30;79.00;;;;;;4956284;29;20437;-87
2023/10/04 03:00:44;;;;;;;1.70;1.37;;;24.20;78.90;;;;;;4956291;29;20938;-87
2023/10/04 03:03:13;;;;;;;1.40;1.10;;;24.20;79.00;;;;;;4956053;29;20501;-87
2023/10/04 03:05:41;;;;;;;1.40;1.20;;;24.20;79.80;;;;;;4955301;28;20575;-87
2023/10/04 03:08:09;;;;;;;1.60;1.43;;;24.20;79.00;;;;;;4956209;29;20434;-88
2023/10/04 03:10:37;;;;;;;1.60;1.10;;;24.20;79.00;;;;;;4956072;29;20791;-88
2023/10/04 03:13:12;;;;;;;1.83;1.60;;;24.20;78.90;;;;;;4955865;28;20536;-87
2023/10/04 03:15:39;;;;;;;1.50;1.23;;;24.20;78.90;;;;;;4956010;28;20438;-87
2023/10/04 03:18:13;;;;;;;1.60;1.20;;;24.20;78.90;;;;;;4956097;28;20444;-87
2023/10/04 03:20:53;;;;;;;1.30;0.93;;;24.20;78.90;;;;;;4956102;29;20457;-87
2023/10/04 03:23:21;;;;;;;1.73;1.37;;;24.20;78.90;;;;;;4956032;29;20437;-87
2023/10/04 03:25:48;;;;;;;1.40;0.93;;;24.20;78.90;;;;;;4955725;29;20489;-87
2023/10/04 03:28:15;;;;;;;2.53;1.13;;;24.20;78.90;;;;;;4955790;29;21034;-87
2023/10/04 03:30:44;;;;;;;1.60;1.20;;;24.20;78.90;;;;;;4955735;29;20964;-87
2023/10/04 03:33:11;;;;;;;1.87;1.20;;;24.20;78.90;;;;;;4955765;29;20454;-87
2023/10/04 03:35:39;;;;;;;1.60;1.10;;;24.20;79.00;;;;;;4955652;29;20448;-88
2023/10/04 03:38:07;;;;;;;1.50;1.10;;;24.20;78.90;;;;;;4955704;28;20442;-87
2023/10/04 03:40:36;;;;;;;1.33;1.23;;;24.20;78.90;;;;;;4955572;29;20465;-87
2023/10/04 03:43:05;;;;;;;1.40;1.13;;;24.20;78.90;;;;;;4955515;28;20441;-87
2023/10/04 03:45:32;;;;;;;1.37;1.20;;;24.20;79.00;;;;;;4955464;29;21083;-87
2023/10/04 03:47:59;;;;;;;1.60;1.10;;;24.20;79.00;;;;;;4955421;29;20446;-87
2023/10/04 03:50:27;;;;;;;1.53;1.20;;;24.20;79.80;;;;;;4955548;29;20797;-87
2023/10/04 03:52:57;;;;;;;1.27;1.10;;;24.20;78.90;;;;;;4955416;28;20474;-87
2023/10/04 03:55:26;;;;;;;1.97;1.27;;;24.20;79.00;;;;;;4955382;28;20565;-87
2023/10/04 03:57:52;;;;;;;1.70;1.50;;;24.20;79.00;;;;;;4955425;29;20450;-88
2023/10/04 04:00:21;;;;;;;1.20;1.10;;;24.20;78.90;;;;;;4955308;29;20546;-87
2023/10/04 04:02:49;;;;;;;1.43;1.10;;;24.20;79.00;;;;;;4955209;28;20857;-88
2023/10/04 04:05:21;;;;;;;1.40;1.00;;;24.20;78.80;;;;;;4955175;29;20566;-87
2023/10/04 04:07:48;;;;;;;1.47;1.20;;;24.20;78.90;;;;;;4955358;28;20446;-87
2023/10/04 04:10:16;;;;;;;2.00;1.20;;;24.20;78.90;;;;;;4955078;29;20460;-87
2023/10/04 04:12:46;;;;;;;1.30;1.00;;;24.20;78.90;;;;;;4954939;28;20552;-87
2023/10/04 04:15:14;;;;;;;1.40;1.10;;;24.20;78.90;;;;;;4955030;29;21008;-87
2023/10/04 04:17:44;;;;;;;1.30;0.90;;;24.20;79.70;;;;;;4955000;28;20437;-87
2023/10/04 04:20:14;;;;;;;1.70;1.33;;;24.20;79.00;;;;;;4955218;28;20442;-87
2023/10/04 04:22:42;;;;;;;1.60;1.20;;;24.20;78.90;;;;;;4955106;28;20441;-87
2023/10/04 04:25:15;;;;;;;2.03;1.37;;;24.20;79.00;;;;;;4955052;29;20508;-88
2023/10/04 04:27:46;;;;;;;1.30;1.10;;;24.20;78.90;;;;;;4955039;29;20453;-87
2023/10/04 04:30:19;;;;;;;1.60;1.20;;;24.20;78.90;;;;;;4955033;28;20933;-87
2023/10/04 04:32:49;;;;;;;1.20;1.00;;;24.20;78.90;;;;;;4954913;29;20481;-87
2023/10/04 04:35:22;;;;;;;1.70;1.40;;;24.20;78.90;;;;;;4954956;29;20465;-87
2023/10/04 04:37:53;;;;;;;1.40;1.27;;;24.20;78.80;;;;;;4954993;28;20469;-87
2023/10/04 04:40:25;;;;;;;1.30;1.03;;;24.20;78.80;;;;;;4954814;29;20470;-87
2023/10/04 04:42:59;;;;;;;1.43;1.17;;;24.10;78.70;;;;;;4954892;29;20453;-87
2023/10/04 04:45:27;;;;;;;1.17;0.97;;;24.20;78.80;;;;;;4954948;28;20496;-88
2023/10/04 04:47:56;;;;;;;1.40;1.20;;;24.20;78.80;;;;;;4954899;29;20446;-87
2023/10/04 04:50:24;;;;;;;1.53;1.10;;;24.20;78.80;;;;;;4954795;29;20533;-87
2023/10/04 04:52:53;;;;;;;1.97;1.23;;;24.20;78.80;;;;;;4954738;29;20528;-87
2023/10/04 04:55:22;;;;;;;1.47;1.10;;;24.20;78.90;;;;;;4954574;29;20790;-87
2023/10/04 04:57:48;;;;;;;1.37;1.20;;;24.10;78.70;;;;;;4954758;29;20493;-87
2023/10/04 05:03:11;;;;;;;1.37;1.00;;;24.20;78.70;;;;;;5109921;27;1243717;-87
2023/10/04 05:05:39;;;;;;;1.30;1.00;;;24.10;78.70;;;;;;5131454;28;20607;-87
2023/10/04 05:08:06;;;;;;;1.30;1.00;;;24.10;78.60;;;;;;5131500;28;20459;-87
2023/10/04 05:10:38;;;;;;;1.30;1.00;;;24.20;78.80;;;;;;5119727;28;20799;-87
2023/10/04 05:13:07;;;;;;;1.80;1.30;;;24.10;78.70;;;;;;5110882;28;20449;-87
2023/10/04 05:15:36;;;;;;;1.57;1.10;;;24.10;78.60;;;;;;5110784;28;20431;-88
2023/10/04 05:18:10;;;;;;;1.20;1.00;;;24.10;79.50;;;;;;5110820;28;20443;-87
2023/10/04 05:20:41;;;;;;;1.20;0.90;;;24.10;78.60;;;;;;5110745;28;20434;-87
2023/10/04 05:23:09;;;;;;;1.53;1.20;;;24.10;78.60;;;;;;5110638;28;20485;-87
2023/10/04 05:25:36;;;;;;;1.60;1.20;;;24.10;78.60;;;;;;5110683;28;20447;-86
2023/10/04 05:28:04;;;;;;;1.40;1.20;;;24.10;78.60;;;;;;5110635;28;20516;-88
2023/10/04 05:30:32;;;;;;;1.77;1.20;;;24.10;78.70;;;;;;5110471;28;20500;-87
2023/10/04 05:32:59;;;;;;;1.60;1.17;;;24.10;78.60;;;;;;5110570;28;20449;-88
2023/10/04 05:35:26;;;;;;;1.43;0.90;;;24.10;78.60;;;;;;5110353;28;20508;-87
2023/10/04 05:37:54;;;;;;;1.20;1.00;;;24.10;78.60;;;;;;5110520;28;20446;-87
2023/10/04 05:40:25;;;;;;;1.43;1.33;;;24.10;78.60;;;;;;5110308;28;20458;-87
2023/10/04 05:42:53;;;;;;;1.17;1.03;;;24.10;78.60;;;;;;5110305;28;20583;-88
2023/10/04 05:45:20;;;;;;;1.50;1.03;;;24.10;78.60;;;;;;5110283;28;20457;-87
2023/10/04 05:47:50;;;;;;;1.30;1.00;;;24.10;78.60;;;;;;5110190;28;20431;-86
2023/10/04 05:50:18;;;;;;;1.37;1.00;;;24.10;78.50;;;;;;5110328;28;20435;-87
2023/10/04 05:52:45;;;;;;;1.70;1.10;;;24.10;79.40;;;;;;5110176;28;20842;-87
2023/10/04 05:55:16;;;;;;;1.67;1.00;;;24.10;78.60;;;;;;5110172;28;20434;-87
2023/10/04 05:57:43;;;;;;;1.30;1.10;;;24.10;78.50;;;;;;5110055;28;20431;-85
2023/10/04 06:00:23;;;;;;;1.40;1.00;;;24.10;78.60;;;;;;5110109;28;20443;-86
2023/10/04 06:02:51;;;;;;;1.30;1.20;;;24.10;78.50;;;;;;5109632;28;20500;-86
2023/10/04 06:05:19;;;;;;;1.40;1.17;;;24.10;78.70;;;;;;5109774;28;20439;-86
2023/10/04 06:07:47;;;;;;;1.80;1.00;;;24.10;78.60;;;;;;5109216;28;20939;-86
2023/10/04 06:10:16;;;;;;;2.03;1.20;;;24.10;78.90;;;;;;5108384;28;20511;-85
2023/10/04 06:12:44;;;;;;;1.70;1.17;;;24.10;79.00;;;;;;5104042;28;20439;-85
2023/10/04 06:15:14;;;;;;;1.50;1.20;;;24.10;79.00;;;;;;5093829;28;20846;-85
2023/10/04 06:17:43;;;;;;;2.10;1.40;;;24.10;79.10;;;;;;5093872;28;20439;-85
2023/10/04 06:20:24;;;;;;;1.50;1.10;;;24.10;79.20;;;;;;5093766;28;20440;-85
2023/10/04 06:22:51;;;;;;;1.37;1.00;;;24.10;80.20;;;;;;5093642;28;20494;-85
2023/10/04 06:25:21;;;;;;;1.67;1.20;;;24.10;79.40;;;;;;5093880;28;20447;-85
2023/10/04 06:27:48;;;;;;;2.60;1.10;;;24.10;79.50;;;;;;5094105;28;20542;-85
2023/10/04 06:30:17;;;;;;;1.40;1.00;;;24.10;79.50;;;;;;5094396;28;20530;-85
2023/10/04 06:32:43;;;;;;;1.30;1.00;;;24.10;79.60;;;;;;5094367;28;20451;-85
2023/10/04 06:35:11;;;;;;;1.30;0.97;;;24.10;79.60;;;;;;5094323;28;20799;-85
2023/10/04 06:37:38;;;;;;;1.50;1.10;;;24.10;79.50;;;;;;5094971;28;20924;-85
2023/10/04 06:40:14;;;;;;;1.40;1.30;;;24.10;79.70;;;;;;5095597;28;20968;-85
2023/10/04 06:42:44;;;;;;;1.63;1.10;;;24.10;79.80;;;;;;5095502;28;21013;-85
2023/10/04 06:45:13;;;;;;;1.30;1.00;;;24.10;79.70;;;;;;5095524;28;20447;-85
2023/10/04 06:47:42;;;;;;;1.60;1.10;;;24.10;79.90;;;;;;5095463;28;20466;-85
2023/10/04 06:50:13;;;;;;;1.93;1.10;;;24.10;79.90;;;;;;5095492;28;20450;-86
2023/10/04 06:52:40;;;;;;;2.50;1.33;;;24.10;79.80;;;;;;5095599;28;20444;-85
2023/10/04 06:55:08;;;;;;;5.03;2.23;;;24.20;79.80;;;;;;5095252;28;20436;-85
2023/10/04 06:57:35;;;;;;;11.57;2.30;;;24.20;76.80;;;;;;5095242;28;20446;-85
2023/10/04 07:00:12;;;;;;;7.47;2.67;;;24.10;75.00;;;;;;5095249;28;20432;-85
2023/10/04 07:02:41;;;;;;;4.60;2.17;;;24.00;74.80;;;;;;5094946;28;20576;-85
2023/10/04 07:05:08;;;;;;;4.70;2.40;;;23.90;75.40;;;;;;5095231;28;20435;-86
2023/10/04 07:07:36;;;;;;;6.90;2.60;;;23.90;75.30;;;;;;5095153;28;20531;-85
2023/10/04 07:10:03;;;;;;;7.53;2.80;;;23.80;74.50;;;;;;5094955;28;20806;-85
2023/10/04 07:12:31;;;;;;;5.90;2.87;;;23.70;74.20;;;;;;5095021;28;20926;-86
2023/10/04 07:14:58;;;;;;;3.90;2.20;;;23.60;73.90;;;;;;5094806;28;20442;-88
2023/10/04 07:17:29;;;;;;;9.33;3.63;;;23.70;74.60;;;;;;5094924;28;20439;-88
2023/10/04 07:19:57;;;;;;;3.77;2.20;;;23.50;74.00;;;;;;5094836;28;20846;-88
2023/10/04 07:22:29;;;;;;;8.37;3.47;;;23.40;73.80;;;;;;5094622;28;20999;-88
2023/10/04 07:24:56;;;;;;;10.27;3.00;;;23.30;73.90;;;;;;5093929;28;20432;-88
2023/10/04 07:27:23;;;;;;;7.57;2.80;;;23.20;74.00;;;;;;5094794;28;20530;-88
2023/10/04 07:29:51;;;;;;;5.50;2.97;;;23.10;74.70;;;;;;5094221;28;20443;-88
2023/10/04 07:32:18;;;;;;;5.70;2.90;;;23.00;75.60;;;;;;5094624;28;20450;-88
2023/10/04 07:34:46;;;;;;;6.63;3.77;;;23.00;74.80;;;;;;5094499;28;20526;-87
2023/10/04 07:37:13;;;;;;;6.83;2.70;;;22.90;74.80;;;;;;5093852;28;20444;-88
2023/10/04 07:39:40;;;;;;;10.33;3.13;;;22.90;74.80;;;;;;5093294;28;21070;-88
2023/10/04 07:42:07;;;;;;;4.60;3.00;;;22.90;75.10;;;;;;5093422;28;20515;-91
2023/10/04 07:44:33;;;;;;;7.83;2.60;;;22.80;75.10;;;;;;5094357;28;20467;-90
2023/10/04 07:47:00;;;;;;;4.27;2.60;;;22.80;75.20;;;;;;5094532;28;20447;-88
2023/10/04 07:49:31;;;;;;;7.57;3.07;;;22.80;75.00;;;;;;5094379;28;20546;-88
2023/10/04 07:52:00;;;;;;;9.27;3.37;;;22.70;75.10;;;;;;5094154;28;20483;-88
2023/10/04 07:54:27;;;;;;;10.33;3.63;;;22.70;75.10;;;;;;5092917;28;20946;-87
2023/10/04 07:56:54;;;;;;;9.77;3.40;;;22.70;75.10;;;;;;5093935;28;20832;-88
2023/10/04 07:59:20;;;;;;;8.10;3.27;;;22.80;75.10;;;;;;5093018;28;20473;-87
2023/10/04 08:01:47;;;;;;;14.10;2.90;;;22.80;75.40;;;;;;5093182;28;20473;-89
2023/10/04 08:04:14;;;;;;;5.93;2.70;;;22.80;75.40;;;;;;5092481;28;20969;-88
2023/10/04 08:06:43;;;;;;;5.57;2.60;;;22.80;75.60;;;;;;5092452;28;20526;-88
2023/10/04 08:09:14;;;;;;;5.23;3.00;;;22.80;75.30;;;;;;5092965;28;20866;-88
2023/10/04 08:11:41;;;;;;;12.03;3.07;;;22.80;75.30;;;;;;5092695;28;20934;-88
2023/10/04 08:14:10;;;;;;;6.73;3.10;;;22.80;75.30;;;;;;5091705;28;20526;-88
2023/10/04 08:16:37;;;;;;;8.00;2.93;;;22.80;75.30;;;;;;5091901;28;21025;-88
2023/10/04 08:19:05;;;;;;;12.37;3.17;;;22.90;75.30;;;;;;5091640;28;20447;-88
2023/10/04 08:21:33;;;;;;;8.40;3.20;;;22.90;75.40;;;;;;5091662;28;21034;-88
2023/10/04 08:24:00;;;;;;;8.57;3.27;;;23.10;75.30;;;;;;5092329;28;20475;-88
2023/10/04 08:26:28;;;;;;;6.17;2.70;;;23.10;75.10;;;;;;5093212;28;20435;-88
2023/10/04 08:28:55;;;;;;;5.70;3.00;;;23.20;75.30;;;;;;5093647;28;20795;-88
2023/10/04 08:31:21;;;;;;;7.80;3.40;;;23.20;75.90;;;;;;5093162;28;20439;-88
2023/10/04 08:33:49;;;;;;;6.90;3.13;;;23.30;75.40;;;;;;5093412;28;20496;-88
2023/10/04 08:36:16;;;;;;;9.03;3.33;;;23.30;75.00;;;;;;5093259;28;20459;-88
2023/10/04 08:38:44;;;;;;;5.10;2.90;;;23.40;75.00;;;;;;5093267;28;20446;-88
2023/10/04 08:41:11;;;;;;;4.80;2.77;;;23.40;75.00;;;;;;5092987;28;20444;-88
2023/10/04 08:43:39;;;;;;;6.33;3.00;;;23.50;74.90;;;;;;5092780;28;20514;-88
2023/10/04 08:46:08;;;;;;;8.00;3.57;;;23.50;74.60;;;;;;5093331;28;20446;-89
2023/10/04 08:48:36;;;;;;;8.47;3.63;;;23.60;74.70;;;;;;5092002;28;20443;-89
2023/10/04 08:51:13;;;;;;;5.40;2.77;;;23.70;74.80;;;;;;5091418;28;20478;-88
2023/10/04 08:53:49;;;;;;;10.10;3.00;;;23.80;74.70;;;;;;5091442;28;20517;-88
2023/10/04 08:56:18;;;;;;;5.80;3.03;;;24.00;74.80;;;;;;5091151;28;20462;-88
2023/10/04 08:58:47;;;;;;;3.23;2.43;;;24.00;74.90;;;;;;5090990;28;20558;-88
2023/10/04 09:01:16;;;;;;;5.60;2.73;;;24.10;75.00;;;;;;5090814;28;20443;-88
2023/10/04 09:03:44;;;;;;;5.70;2.43;;;24.20;75.30;;;;;;5091023;28;20491;-88
2023/10/04 09:06:13;;;;;;;2.90;2.30;;;24.20;75.40;;;;;;5091005;28;20446;-88
2023/10/04 09:08:41;;;;;;;4.93;2.17;;;24.30;75.60;;;;;;5091101;28;20443;-88
2023/10/04 09:11:10;;;;;;;4.10;2.33;;;24.30;75.50;;;;;;5091156;28;20431;-88
2023/10/04 09:13:48;;;;;;;4.40;2.90;;;24.40;75.60;;;;;;5091603;28;20451;-88
2023/10/04 09:16:19;;;;;;;6.07;2.30;;;24.40;75.50;;;;;;5091682;28;20492;-88
2023/10/04 09:18:46;;;;;;;8.57;2.23;;;24.40;75.40;;;;;;5091637;28;20432;-88
2023/10/04 09:21:16;;;;;;;5.80;2.30;;;24.50;75.50;;;;;;5091727;28;20496;-88
2023/10/04 09:23:43;;;;;;;6.23;2.80;;;24.50;75.50;;;;;;5092240;28;20827;-88
2023/10/04 09:26:16;;;;;;;3.27;2.20;;;24.50;75.80;;;;;;5091814;28;20436;-88
2023/10/04 09:28:43;;;;;;;6.40;2.73;;;24.50;75.70;;;;;;5092681;28;20443;-88
2023/10/04 09:31:12;;;;;;;5.50;2.77;;;24.50;75.60;;;;;;5092624;28;20543;-88
2023/10/04 09:33:40;;;;;;;4.00;2.23;;;24.60;75.70;;;;;;5092778;28;20447;-88
2023/10/04 09:36:10;;;;;;;5.13;2.50;;;24.60;75.70;;;;;;5092832;28;20997;-88
2023/10/04 09:38:38;;;;;;;5.00;2.20;;;24.60;75.70;;;;;;5092182;28;20470;-88
2023/10/04 09:41:04;;;;;;;4.27;2.30;;;24.70;76.00;;;;;;5090585;28;21003;-88
2023/10/04 09:43:36;;;;;;;3.93;2.00;;;24.60;75.80;;;;;;5090451;28;20494;-88
2023/10/04 09:46:04;;;;;;;4.27;2.10;;;24.70;76.10;;;;;;5090663;28;20789;-88
2023/10/04 09:48:34;;;;;;;4.80;2.00;;;24.60;75.90;;;;;;5091907;28;20436;-88
2023/10/04 09:51:04;;;;;;;4.07;2.10;;;24.70;76.00;;;;;;5094352;28;20469;-88
2023/10/04 09:53:31;;;;;;;5.90;2.40;;;24.70;76.00;;;;;;5094351;28;20877;-88
2023/10/04 09:56:02;;;;;;;6.83;2.67;;;24.60;76.70;;;;;;5096431;28;20424;-88
2023/10/04 09:58:31;;;;;;;3.10;1.93;;;24.70;76.00;;;;;;5096545;28;20431;-88
2023/10/04 10:01:06;;;;;;;2.77;2.47;;;24.70;76.00;;;;;;5096189;28;20427;-88
2023/10/04 10:03:41;;;;;;;3.97;2.40;;;24.70;76.00;;;;;;5096437;28;20490;-88
2023/10/04 10:06:11;;;;;;;5.50;2.30;;;24.70;75.90;;;;;;5096376;28;20930;-88
2023/10/04 10:08:44;;;;;;;3.03;2.07;;;24.60;75.80;;;;;;5096143;28;20518;-88
2023/10/04 10:11:12;;;;;;;5.87;2.50;;;24.60;75.70;;;;;;5096513;28;20776;-88
2023/10/04 10:13:41;;;;;;;6.33;2.47;;;24.60;75.80;;;;;;5096392;28;20914;-88
2023/10/04 10:16:08;;;;;;;7.53;2.13;;;24.60;75.80;;;;;;5095994;28;20432;-87
2023/10/04 10:18:36;;;;;;;8.90;2.57;;;24.60;75.90;;;;;;5095861;28;20435;-87
2023/10/04 10:21:04;;;;;;;3.67;2.50;;;24.60;76.30;;;;;;5094659;28;20442;-87
2023/10/04 10:23:31;;;;;;;5.00;2.20;;;24.60;76.60;;;;;;5095584;28;20521;-86
2023/10/04 10:26:18;;;;;;;4.53;2.40;;;24.50;76.50;;;;;;5095717;28;20519;-86
2023/10/04 10:28:47;;;;;;;4.40;2.30;;;24.60;76.70;;;;;;5095617;28;20435;-86
2023/10/04 10:31:21;;;;;;;4.00;1.93;;;24.50;76.50;;;;;;5095669;28;20435;-86
2023/10/04 10:33:50;;;;;;;7.57;2.47;;;24.50;76.40;;;;;;5094984;28;20435;-86
2023/10/04 10:36:20;;;;;;;3.30;2.30;;;24.60;76.40;;;;;;5093446;28;20436;-86
2023/10/04 10:38:48;;;;;;;4.87;2.20;;;24.60;76.40;;;;;;5093467;28;20440;-86
2023/10/04 10:42:07;;;;;;;6.70;2.73;;;24.60;76.40;;;;;;5093586;28;20957;-87
2023/10/04 10:44:38;;;;;;;4.77;2.20;;;24.60;76.60;;;;;;5093473;28;20852;-87
2023/10/04 10:47:07;;;;;;;2.60;2.00;;;24.60;76.60;;;;;;5093569;28;20809;-86
2023/10/04 10:49:51;;;;;;;2.93;2.13;;;24.60;76.50;;;;;;5093269;28;21080;-86
2023/10/04 10:52:25;;;;;;;7.17;2.47;;;24.60;76.60;;;;;;5093124;28;20501;-86
2023/10/04 10:54:52;;;;;;;2.00;1.90;;;24.60;76.50;;;;;;5093005;28;20439;-87
2023/10/04 10:57:20;;;;;;;4.53;2.10;;;24.60;76.70;;;;;;5093063;28;20436;-86
2023/10/04 10:59:47;;;;;;;5.90;2.37;;;24.70;76.80;;;;;;5093197;28;20436;-86
2023/10/04 11:02:14;;;;;;;3.80;2.40;;;24.70;76.90;;;;;;5094126;28;20860;-86
2023/10/04 11:04:41;;;;;;;3.57;2.27;;;24.70;76.70;;;;;;5094296;28;20522;-86
2023/10/04 11:07:11;;;;;;;3.77;2.13;;;24.70;76.90;;;;;;5093032;28;20799;-87
2023/10/04 11:09:39;;;;;;;3.10;1.97;;;24.70;76.80;;;;;;5092998;28;20466;-87
2023/10/04 11:12:08;;;;;;;3.47;1.83;;;24.60;76.70;;;;;;5092918;28;20442;-86
2023/10/04 11:14:36;;;;;;;2.90;1.97;;;24.60;76.70;;;;;;5092892;28;20443;-87
2023/10/04 11:17:03;;;;;;;2.53;1.70;;;24.60;76.70;;;;;;5092873;28;20778;-86
2023/10/04 11:19:31;;;;;;;5.70;2.37;;;24.60;76.60;;;;;;5093196;28;20526;-86
2023/10/04 11:21:59;;;;;;;3.17;1.90;;;24.60;76.60;;;;;;5092629;28;20431;-86
2023/10/04 11:24:27;;;;;;;2.73;1.80;;;24.60;76.60;;;;;;5092712;28;20479;-86
2023/10/04 11:26:56;;;;;;;6.10;2.80;;;24.60;76.30;;;;;;5093297;28;20442;-86
2023/10/04 11:29:28;;;;;;;3.03;1.97;;;24.60;76.00;;;;;;5093741;28;20531;-86
2023/10/04 11:31:58;;;;;;;3.07;2.33;;;24.50;76.20;;;;;;5093731;28;20522;-87
2023/10/04 11:34:25;;;;;;;7.73;3.10;;;24.50;76.30;;;;;;5093748;28;20952;-87
2023/10/04 11:36:58;;;;;;;4.53;2.23;;;24.50;76.00;;;;;;5093842;28;20443;-87
2023/10/04 11:39:33;;;;;;;3.97;2.20;;;24.60;76.10;;;;;;5094003;28;20462;-87
2023/10/04 11:42:01;;;;;;;3.70;2.33;;;24.60;76.80;;;;;;5094949;28;20446;-87
2023/10/04 11:44:29;;;;;;;3.90;2.60;;;24.60;75.70;;;;;;5094903;28;20487;-87
2023/10/04 11:46:58;;;;;;;3.40;2.30;;;24.60;75.60;;;;;;5094661;28;20439;-86
2023/10/04 11:49:27;;;;;;;3.60;2.10;;;24.70;75.90;;;;;;5094886;28;20440;-86
2023/10/04 11:51:55;;;;;;;4.87;2.60;;;24.70;75.80;;;;;;5094439;28;20440;-87
2023/10/04 11:54:26;;;;;;;5.37;2.53;;;24.70;75.90;;;;;;5094574;28;20436;-86
2023/10/04 11:56:55;;;;;;;2.90;2.17;;;24.70;76.10;;;;;;5094469;28;20828;-88
2023/10/04 11:59:30;;;;;;;5.93;2.87;;;24.70;77.20;;;;;;5094133;28;20444;-85
2023/10/04 12:01:56;;;;;;;6.20;2.80;;;24.80;76.40;;;;;;5093752;28;20521;-86
2023/10/04 12:04:23;;;;;;;2.80;2.10;;;24.80;76.40;;;;;;5093778;28;20501;-84
2023/10/04 12:06:58;;;;;;;3.63;2.30;;;24.90;76.50;;;;;;5093356;28;20446;-86
2023/10/04 12:09:27;;;;;;;4.03;2.17;;;24.90;76.40;;;;;;5091644;28;20546;-87
2023/10/04 12:11:56;;;;;;;4.33;2.87;;;25.00;76.30;;;;;;5091116;28;20454;-85
2023/10/04 12:14:23;;;;;;;3.33;2.07;;;25.00;76.20;;;;;;5092113;28;20584;-84
2023/10/04 12:16:52;;;;;;;3.30;2.13;;;25.00;76.10;;;;;;5092270;28;20534;-87
2023/10/04 12:19:19;;;;;;;4.50;2.30;;;25.00;76.10;;;;;;5092295;28;20435;-87
2023/10/04 12:21:47;;;;;;;5.07;2.40;;;25.00;76.10;;;;;;5092081;28;20965;-87
2023/10/04 12:24:15;;;;;;;4.23;3.00;;;25.00;76.10;;;;;;5093577;28;20482;-87
2023/10/04 12:26:41;;;;;;;5.10;2.13;;;25.00;76.10;;;;;;5093772;28;20447;-86
2023/10/04 12:29:11;;;;;;;3.10;1.90;;;25.00;76.00;;;;;;5093568;28;20621;-87
2023/10/04 12:31:38;;;;;;;4.80;2.20;;;25.00;76.00;;;;;;5093620;28;20440;-87
2023/10/04 12:34:05;;;;;;;3.37;1.90;;;25.00;76.10;;;;;;5093483;28;20477;-86
2023/10/04 12:36:32;;;;;;;3.30;2.23;;;25.00;76.10;;;;;;5093491;28;20926;-86
2023/10/04 12:38:58;;;;;;;4.40;2.20;;;25.00;76.10;;;;;;5093478;28;20538;-87
2023/10/04 12:41:25;;;;;;;4.53;2.37;;;25.00;76.10;;;;;;5093428;28;20839;-86
2023/10/04 12:43:52;;;;;;;2.50;2.30;;;25.00;76.10;;;;;;5093427;28;20505;-88
2023/10/04 12:46:21;;;;;;;5.00;2.47;;;25.00;76.10;;;;;;5093549;28;20439;-87
2023/10/04 12:48:48;;;;;;;3.87;2.03;;;25.00;76.20;;;;;;5093480;28;20451;-87
2023/10/04 12:51:15;;;;;;;3.27;1.80;;;25.00;76.10;;;;;;5093263;28;20431;-87
2023/10/04 12:53:44;;;;;;;4.20;2.03;;;25.00;76.20;;;;;;5093255;28;20530;-86
2023/10/04 12:56:11;;;;;;;3.20;2.20;;;25.00;76.20;;;;;;5093173;28;20439;-87